EKBI/BLL METAR and TAF weather

Enter ICAO airport designator
Station Type Date Time Source
EKBI METAR 2019/09/21 21:50 UTC NOAA

EKBI 212150Z 14001KT 7000 R09/0700D R27/P1500N BCFG VV001 06/06 Q1018


Station Type Date Time Source
EKBI Decoded METAR 2019/09/21 21:50 UTC NOAA

Billund Lufthavn, Denmark (EKBI) 55-44N 009-10E 79M
Sep 21, 2019 - 05:50 PM EDT / 2019.09.21 2150 UTC
Wind: from the SE (140 degrees) at 1 MPH (1 KT):0
Visibility: 4 mile(s):0
Sky conditions: obscured
Weather: patches of fog
Temperature: 42 F (6 C)
Dew Point: 42 F (6 C)
Relative Humidity: 100%
Pressure (altimeter): 30.06 in. Hg (1018 hPa)
ob: EKBI 212150Z 14001KT 7000 R09/0700D R27/P1500N BCFG VV001 06/06 Q1018
cycle: 22

Station Type Date Time Source
EKBI TAF 2019/09/21 18:30 UTC NOAA

TAF EKBI 211712Z 2118/2218 29005KT 9999 FEW015
TEMPO 2120/2202 2000 BR PROB40 2202/2208 0300 FG VV001
BECMG 2210/2212 13010KT

Example: see airport list